sensor_id;sensor_type;location;lat;lon;timestamp;pressure;altitude;pressure_sealevel;temperature;humidity
66430;BME280;53242;51.694;10.006;2023-02-19T00:01:44;99530.97;;;9.16;95.08
66430;BME280;53242;51.694;10.006;2023-02-19T00:04:12;99526.50;;;9.17;94.98
66430;BME280;53242;51.694;10.006;2023-02-19T00:06:35;99513.38;;;9.02;95.33
66430;BME280;53242;51.694;10.006;2023-02-19T00:08:58;99502.47;;;9.05;95.71
66430;BME280;53242;51.694;10.006;2023-02-19T00:11:24;99505.94;;;9.05;95.76
66430;BME280;53242;51.694;10.006;2023-02-19T00:13:49;99485.41;;;9.01;95.16
66430;BME280;53242;51.694;10.006;2023-02-19T00:18:45;99492.94;;;9.04;95.26
66430;BME280;53242;51.694;10.006;2023-02-19T00:21:08;99498.47;;;9.09;95.38
66430;BME280;53242;51.694;10.006;2023-02-19T00:23:31;99488.56;;;9.11;95.66
66430;BME280;53242;51.694;10.006;2023-02-19T00:25:53;99492.78;;;9.05;95.60
66430;BME280;53242;51.694;10.006;2023-02-19T00:28:16;99490.22;;;9.12;94.99
66430;BME280;53242;51.694;10.006;2023-02-19T00:30:38;99485.13;;;9.11;95.15
66430;BME280;53242;51.694;10.006;2023-02-19T00:33:01;99485.69;;;9.06;95.32
66430;BME280;53242;51.694;10.006;2023-02-19T00:35:23;99482.31;;;9.12;94.99
66430;BME280;53242;51.694;10.006;2023-02-19T00:37:46;99473.72;;;9.03;95.82
66430;BME280;53242;51.694;10.006;2023-02-19T00:40:08;99467.44;;;9.04;95.46
66430;BME280;53242;51.694;10.006;2023-02-19T00:42:30;99455.72;;;9.07;95.56
66430;BME280;53242;51.694;10.006;2023-02-19T00:44:53;99457.19;;;9.10;95.24
66430;BME280;53242;51.694;10.006;2023-02-19T00:47:15;99449.56;;;9.00;95.56
66430;BME280;53242;51.694;10.006;2023-02-19T00:49:38;99455.16;;;9.12;95.92
66430;BME280;53242;51.694;10.006;2023-02-19T00:52:00;99442.56;;;9.07;95.94
66430;BME280;53242;51.694;10.006;2023-02-19T00:54:23;99442.31;;;9.02;96.20
66430;BME280;53242;51.694;10.006;2023-02-19T00:56:45;99440.66;;;9.01;96.54
66430;BME280;53242;51.694;10.006;2023-02-19T00:59:08;99435.88;;;8.89;96.71
66430;BME280;53242;51.694;10.006;2023-02-19T01:01:30;99430.25;;;8.93;97.30
66430;BME280;53242;51.694;10.006;2023-02-19T01:03:52;99430.00;;;8.87;96.86
66430;BME280;53242;51.694;10.006;2023-02-19T01:06:17;99429.88;;;8.96;96.44
66430;BME280;53242;51.694;10.006;2023-02-19T01:08:40;99427.50;;;9.01;96.24
66430;BME280;53242;51.694;10.006;2023-02-19T01:11:03;99427.91;;;8.98;96.51
66430;BME280;53242;51.694;10.006;2023-02-19T01:13:26;99436.41;;;9.00;96.40
66430;BME280;53242;51.694;10.006;2023-02-19T01:15:52;99428.88;;;8.97;96.03
66430;BME280;53242;51.694;10.006;2023-02-19T01:18:14;99424.44;;;8.97;96.93
66430;BME280;53242;51.694;10.006;2023-02-19T01:20:39;99420.25;;;9.03;97.41
66430;BME280;53242;51.694;10.006;2023-02-19T01:23:01;99415.28;;;8.93;97.40
66430;BME280;53242;51.694;10.006;2023-02-19T01:25:24;99408.81;;;8.96;97.21
66430;BME280;53242;51.694;10.006;2023-02-19T01:27:46;99408.63;;;8.97;97.26
66430;BME280;53242;51.694;10.006;2023-02-19T01:30:09;99414.63;;;8.91;97.94
66430;BME280;53242;51.694;10.006;2023-02-19T01:32:31;99421.78;;;8.97;97.02
66430;BME280;53242;51.694;10.006;2023-02-19T01:34:54;99425.25;;;8.98;97.02
66430;BME280;53242;51.694;10.006;2023-02-19T01:37:16;99414.16;;;9.02;96.91
66430;BME280;53242;51.694;10.006;2023-02-19T01:39:39;99409.53;;;9.04;96.50
66430;BME280;53242;51.694;10.006;2023-02-19T01:42:01;99403.81;;;9.01;96.96
66430;BME280;53242;51.694;10.006;2023-02-19T01:46:49;99398.00;;;9.05;96.47
66430;BME280;53242;51.694;10.006;2023-02-19T01:49:17;99389.34;;;9.12;96.19
66430;BME280;53242;51.694;10.006;2023-02-19T01:51:48;99384.16;;;9.18;95.79
66430;BME280;53242;51.694;10.006;2023-02-19T01:54:16;99374.19;;;9.14;95.96
66430;BME280;53242;51.694;10.006;2023-02-19T01:56:43;99359.50;;;9.04;96.04
66430;BME280;53242;51.694;10.006;2023-02-19T01:59:08;99363.41;;;9.09;96.35
66430;BME280;53242;51.694;10.006;2023-02-19T02:01:30;99363.41;;;9.09;96.07
66430;BME280;53242;51.694;10.006;2023-02-19T02:03:53;99362.31;;;9.25;95.65
66430;BME280;53242;51.694;10.006;2023-02-19T02:06:28;99354.59;;;9.23;95.55
66430;BME280;53242;51.694;10.006;2023-02-19T02:08:54;99353.81;;;9.23;95.22
66430;BME280;53242;51.694;10.006;2023-02-19T02:11:37;99352.22;;;9.28;95.18
66430;BME280;53242;51.694;10.006;2023-02-19T02:14:02;99354.41;;;9.25;95.40
66430;BME280;53242;51.694;10.006;2023-02-19T02:16:51;99352.66;;;9.32;95.16
66430;BME280;53242;51.694;10.006;2023-02-19T02:19:23;99344.53;;;9.27;95.02
66430;BME280;53242;51.694;10.006;2023-02-19T02:22:24;99350.28;;;9.15;95.10
66430;BME280;53242;51.694;10.006;2023-02-19T02:25:08;99335.22;;;9.31;95.87
66430;BME280;53242;51.694;10.006;2023-02-19T02:27:53;99332.84;;;9.14;95.81
66430;BME280;53242;51.694;10.006;2023-02-19T02:30:25;99330.72;;;9.25;95.70
66430;BME280;53242;51.694;10.006;2023-02-19T02:33:03;99324.00;;;9.22;96.03
66430;BME280;53242;51.694;10.006;2023-02-19T02:35:33;99335.31;;;9.16;96.42
66430;BME280;53242;51.694;10.006;2023-02-19T02:37:59;99331.06;;;9.15;95.88
66430;BME280;53242;51.694;10.006;2023-02-19T02:40:23;99330.22;;;9.14;95.78
66430;BME280;53242;51.694;10.006;2023-02-19T02:42:46;99331.59;;;9.10;95.66
66430;BME280;53242;51.694;10.006;2023-02-19T02:47:57;99334.44;;;9.09;96.10
66430;BME280;53242;51.694;10.006;2023-02-19T02:50:32;99347.22;;;9.12;96.56
66430;BME280;53242;51.694;10.006;2023-02-19T02:53:07;99345.66;;;9.17;96.34
66430;BME280;53242;51.694;10.006;2023-02-19T02:55:51;99345.47;;;9.19;96.21
66430;BME280;53242;51.694;10.006;2023-02-19T02:58:16;99349.16;;;9.25;95.89
66430;BME280;53242;51.694;10.006;2023-02-19T03:00:43;99342.63;;;9.20;96.42
66430;BME280;53242;51.694;10.006;2023-02-19T03:03:28;99341.63;;;9.21;96.45
66430;BME280;53242;51.694;10.006;2023-02-19T03:05:58;99348.16;;;9.26;96.46
66430;BME280;53242;51.694;10.006;2023-02-19T03:08:26;99349.94;;;9.18;96.30
66430;BME280;53242;51.694;10.006;2023-02-19T03:10:59;99352.97;;;9.22;96.46
66430;BME280;53242;51.694;10.006;2023-02-19T03:13:42;99336.81;;;9.25;96.95
66430;BME280;53242;51.694;10.006;2023-02-19T03:16:26;99348.19;;;9.32;96.16
66430;BME280;53242;51.694;10.006;2023-02-19T03:19:13;99336.63;;;9.27;96.04
66430;BME280;53242;51.694;10.006;2023-02-19T03:21:41;99342.09;;;9.25;96.40
66430;BME280;53242;51.694;10.006;2023-02-19T03:24:06;99344.53;;;9.27;96.35
66430;BME280;53242;51.694;10.006;2023-02-19T03:26:55;99346.59;;;9.31;96.28
66430;BME280;53242;51.694;10.006;2023-02-19T03:29:23;99348.16;;;9.26;96.39
66430;BME280;53242;51.694;10.006;2023-02-19T03:32:07;99354.06;;;9.28;96.47
66430;BME280;53242;51.694;10.006;2023-02-19T03:34:36;99352.97;;;9.22;96.38
66430;BME280;53242;51.694;10.006;2023-02-19T03:37:05;99351.72;;;9.40;95.82
66430;BME280;53242;51.694;10.006;2023-02-19T03:39:30;99348.03;;;9.34;95.67
66430;BME280;53242;51.694;10.006;2023-02-19T03:42:17;99356.59;;;9.43;95.10
66430;BME280;53242;51.694;10.006;2023-02-19T03:44:47;99360.06;;;9.43;94.82
66430;BME280;53242;51.694;10.006;2023-02-19T03:47:18;99356.97;;;9.40;94.77
66430;BME280;53242;51.694;10.006;2023-02-19T03:50:20;99352.41;;;9.48;94.39
66430;BME280;53242;51.694;10.006;2023-02-19T03:52:59;99361.25;;;9.41;94.61
66430;BME280;53242;51.694;10.006;2023-02-19T03:55:52;99358.63;;;9.41;94.64
66430;BME280;53242;51.694;10.006;2023-02-19T03:58:23;99357.66;;;9.48;94.13
66430;BME280;53242;51.694;10.006;2023-02-19T04:00:53;99357.78;;;9.40;94.13
66430;BME280;53242;51.694;10.006;2023-02-19T04:06:13;99364.88;;;9.40;92.67
66430;BME280;53242;51.694;10.006;2023-02-19T04:08:40;99369.28;;;9.32;93.19
66430;BME280;53242;51.694;10.006;2023-02-19T04:11:06;99374.66;;;9.46;91.67
66430;BME280;53242;51.694;10.006;2023-02-19T04:13:48;99369.59;;;9.44;91.24
66430;BME280;53242;51.694;10.006;2023-02-19T04:16:17;99384.50;;;9.37;91.59
66430;BME280;53242;51.694;10.006;2023-02-19T04:18:43;99383.53;;;9.38;91.18
66430;BME280;53242;51.694;10.006;2023-02-19T04:21:07;99390.47;;;9.46;91.03
66430;BME280;53242;51.694;10.006;2023-02-19T04:23:36;99395.34;;;9.49;90.64
66430;BME280;53242;51.694;10.006;2023-02-19T04:26:00;99392.81;;;9.34;91.22
66430;BME280;53242;51.694;10.006;2023-02-19T04:28:22;99398.31;;;9.39;90.43
66430;BME280;53242;51.694;10.006;2023-02-19T04:30:45;99401.75;;;9.40;90.62
66430;BME280;53242;51.694;10.006;2023-02-19T04:33:08;99405.97;;;9.34;90.91
66430;BME280;53242;51.694;10.006;2023-02-19T04:35:30;99403.94;;;9.36;90.28
66430;BME280;53242;51.694;10.006;2023-02-19T04:37:53;99412.50;;;9.38;90.35
66430;BME280;53242;51.694;10.006;2023-02-19T04:40:15;99414.88;;;9.33;90.82
66430;BME280;53242;51.694;10.006;2023-02-19T04:42:38;99413.28;;;9.38;90.50
66430;BME280;53242;51.694;10.006;2023-02-19T04:45:00;99410.59;;;9.32;91.07
66430;BME280;53242;51.694;10.006;2023-02-19T04:47:23;99412.25;;;9.33;91.22
66430;BME280;53242;51.694;10.006;2023-02-19T04:49:45;99415.72;;;9.40;90.27
66430;BME280;53242;51.694;10.006;2023-02-19T04:52:08;99417.94;;;9.36;90.14
66430;BME280;53242;51.694;10.006;2023-02-19T04:54:31;99425.03;;;9.36;90.06
66430;BME280;53242;51.694;10.006;2023-02-19T04:56:53;99425.06;;;9.43;90.39
66430;BME280;53242;51.694;10.006;2023-02-19T04:59:16;99425.41;;;9.33;90.37
66430;BME280;53242;51.694;10.006;2023-02-19T05:01:38;99425.41;;;9.33;90.64
66430;BME280;53242;51.694;10.006;2023-02-19T05:04:00;99430.22;;;9.29;90.74
66430;BME280;53242;51.694;10.006;2023-02-19T05:06:23;99410.59;;;9.32;90.42
66430;BME280;53242;51.694;10.006;2023-02-19T05:08:45;99422.84;;;9.40;89.91
66430;BME280;53242;51.694;10.006;2023-02-19T05:11:09;99431.13;;;9.36;89.98
66430;BME280;53242;51.694;10.006;2023-02-19T05:13:32;99439.50;;;9.25;90.29
66430;BME280;53242;51.694;10.006;2023-02-19T05:16:02;99436.03;;;9.25;90.75
66430;BME280;53242;51.694;10.006;2023-02-19T05:18:26;99427.59;;;9.29;90.39
66430;BME280;53242;51.694;10.006;2023-02-19T05:20:50;99434.13;;;9.33;89.90
66430;BME280;53242;51.694;10.006;2023-02-19T05:23:12;99452.19;;;9.36;90.13
66430;BME280;53242;51.694;10.006;2023-02-19T05:25:35;99462.38;;;9.25;90.75
66430;BME280;53242;51.694;10.006;2023-02-19T05:27:57;99461.50;;;9.17;91.36
66430;BME280;53242;51.694;10.006;2023-02-19T05:30:38;99459.94;;;9.23;91.40
66430;BME280;53242;51.694;10.006;2023-02-19T05:33:00;99461.88;;;9.14;91.93
66430;BME280;53242;51.694;10.006;2023-02-19T05:35:23;99465.06;;;9.10;92.02
66430;BME280;53242;51.694;10.006;2023-02-19T05:37:45;99470.88;;;9.05;92.74
66430;BME280;53242;51.694;10.006;2023-02-19T05:40:07;99469.59;;;9.16;91.88
66430;BME280;53242;51.694;10.006;2023-02-19T05:42:30;99479.88;;;9.11;90.78
66430;BME280;53242;51.694;10.006;2023-02-19T05:44:52;99482.25;;;9.05;90.17
66430;BME280;53242;51.694;10.006;2023-02-19T05:47:15;99483.84;;;9.07;89.27
66430;BME280;53242;51.694;10.006;2023-02-19T05:49:37;99488.31;;;9.06;88.97
66430;BME280;53242;51.694;10.006;2023-02-19T05:51:59;99478.31;;;9.01;89.08
66430;BME280;53242;51.694;10.006;2023-02-19T05:54:22;99487.16;;;8.94;89.39
66430;BME280;53242;51.694;10.006;2023-02-19T05:56:44;99481.53;;;8.97;89.28
66430;BME280;53242;51.694;10.006;2023-02-19T05:59:21;99487.16;;;8.94;89.22
66430;BME280;53242;51.694;10.006;2023-02-19T06:01:44;99491.88;;;8.83;89.58
66430;BME280;53242;51.694;10.006;2023-02-19T06:04:07;99502.59;;;8.97;89.25
66430;BME280;53242;51.694;10.006;2023-02-19T06:06:30;99498.13;;;8.97;88.86
66430;BME280;53242;51.694;10.006;2023-02-19T06:08:53;99500.16;;;8.95;89.37
66430;BME280;53242;51.694;10.006;2023-02-19T06:11:16;99498.50;;;8.94;89.44
66430;BME280;53242;51.694;10.006;2023-02-19T06:13:39;99500.75;;;8.97;89.03
66430;BME280;53242;51.694;10.006;2023-02-19T06:16:06;99498.19;;;9.04;88.70
66430;BME280;53242;51.694;10.006;2023-02-19T06:18:29;99501.75;;;8.96;89.00
66430;BME280;53242;51.694;10.006;2023-02-19T06:20:51;99503.72;;;9.09;87.75
66430;BME280;53242;51.694;10.006;2023-02-19T06:23:13;99510.75;;;9.02;88.24
66430;BME280;53242;51.694;10.006;2023-02-19T06:25:36;99505.69;;;9.00;87.75
66430;BME280;53242;51.694;10.006;2023-02-19T06:27:59;99513.19;;;9.03;87.14
66430;BME280;53242;51.694;10.006;2023-02-19T06:30:21;99525.72;;;9.01;87.72
66430;BME280;53242;51.694;10.006;2023-02-19T06:32:44;99518.84;;;9.00;88.11
66430;BME280;53242;51.694;10.006;2023-02-19T06:35:06;99525.63;;;8.95;88.29
66430;BME280;53242;51.694;10.006;2023-02-19T06:37:29;99522.38;;;8.93;88.38
66430;BME280;53242;51.694;10.006;2023-02-19T06:39:51;99533.19;;;8.98;87.97
66430;BME280;53242;51.694;10.006;2023-02-19T06:42:14;99552.94;;;8.94;88.55
66430;BME280;53242;51.694;10.006;2023-02-19T06:44:36;99551.34;;;8.39;88.77
66430;BME280;53242;51.694;10.006;2023-02-19T06:46:58;99579.59;;;8.22;89.45
66430;BME280;53242;51.694;10.006;2023-02-19T06:49:21;99554.56;;;7.88;90.51
66430;BME280;53242;51.694;10.006;2023-02-19T06:51:43;99564.22;;;7.65;90.55
66430;BME280;53242;51.694;10.006;2023-02-19T06:54:06;99577.78;;;7.45;90.93
66430;BME280;53242;51.694;10.006;2023-02-19T06:56:30;99588.38;;;7.29;91.26
66430;BME280;53242;51.694;10.006;2023-02-19T06:58:56;99611.59;;;7.00;91.86
66430;BME280;53242;51.694;10.006;2023-02-19T07:01:19;99601.53;;;7.12;91.58
66430;BME280;53242;51.694;10.006;2023-02-19T07:03:41;99613.91;;;7.03;91.79
66430;BME280;53242;51.694;10.006;2023-02-19T07:06:04;99645.72;;;7.00;91.73
66430;BME280;53242;51.694;10.006;2023-02-19T07:08:26;99661.00;;;6.80;92.13
66430;BME280;53242;51.694;10.006;2023-02-19T07:10:56;99664.75;;;6.86;92.08
66430;BME280;53242;51.694;10.006;2023-02-19T07:13:19;99662.66;;;6.73;92.21
66430;BME280;53242;51.694;10.006;2023-02-19T07:15:41;99663.13;;;6.60;92.44
66430;BME280;53242;51.694;10.006;2023-02-19T07:18:04;99662.81;;;6.71;91.32
66430;BME280;53242;51.694;10.006;2023-02-19T07:20:28;99675.59;;;6.66;91.41
66430;BME280;53242;51.694;10.006;2023-02-19T07:22:51;99688.88;;;6.65;91.12
66430;BME280;53242;51.694;10.006;2023-02-19T07:25:13;99685.94;;;6.68;90.96
66430;BME280;53242;51.694;10.006;2023-02-19T07:27:35;99685.28;;;6.57;91.14
66430;BME280;53242;51.694;10.006;2023-02-19T07:29:58;99690.84;;;6.63;90.19
66430;BME280;53242;51.694;10.006;2023-02-19T07:32:21;99715.41;;;6.62;90.48
66430;BME280;53242;51.694;10.006;2023-02-19T07:34:43;99730.50;;;6.68;90.35
66430;BME280;53242;51.694;10.006;2023-02-19T07:37:05;99736.22;;;6.55;90.92
66430;BME280;53242;51.694;10.006;2023-02-19T07:39:28;99747.53;;;6.55;90.62
66430;BME280;53242;51.694;10.006;2023-02-19T07:41:50;99752.59;;;6.40;91.40
66430;BME280;53242;51.694;10.006;2023-02-19T07:44:21;99757.56;;;6.52;90.55
66430;BME280;53242;51.694;10.006;2023-02-19T07:46:44;99769.19;;;6.49;90.76
66430;BME280;53242;51.694;10.006;2023-02-19T07:49:06;99783.28;;;6.56;90.40
66430;BME280;53242;51.694;10.006;2023-02-19T07:51:29;99791.09;;;6.32;91.20
66430;BME280;53242;51.694;10.006;2023-02-19T07:53:51;99783.91;;;6.42;90.41
66430;BME280;53242;51.694;10.006;2023-02-19T07:56:13;99789.81;;;6.44;90.78
66430;BME280;53242;51.694;10.006;2023-02-19T07:58:36;99798.19;;;6.56;90.11
66430;BME280;53242;51.694;10.006;2023-02-19T08:01:10;99801.16;;;6.61;89.63
66430;BME280;53242;51.694;10.006;2023-02-19T08:03:35;99807.38;;;6.60;89.95
66430;BME280;53242;51.694;10.006;2023-02-19T08:05:57;99819.50;;;6.61;90.24
66430;BME280;53242;51.694;10.006;2023-02-19T08:08:19;99820.63;;;6.50;90.20
66430;BME280;53242;51.694;10.006;2023-02-19T08:10:42;99817.41;;;6.65;89.86
66430;BME280;53242;51.694;10.006;2023-02-19T08:13:24;99827.72;;;6.66;89.81
66430;BME280;53242;51.694;10.006;2023-02-19T08:15:49;99838.25;;;6.83;89.49
66430;BME280;53242;51.694;10.006;2023-02-19T08:18:12;99842.44;;;6.51;90.39
66430;BME280;53242;51.694;10.006;2023-02-19T08:20:35;99838.34;;;6.56;90.75
66430;BME280;53242;51.694;10.006;2023-02-19T08:22:57;99848.03;;;6.64;91.03
66430;BME280;53242;51.694;10.006;2023-02-19T08:25:20;99845.91;;;6.76;90.54
66430;BME280;53242;51.694;10.006;2023-02-19T08:27:42;99854.47;;;6.78;90.09
66430;BME280;53242;51.694;10.006;2023-02-19T08:30:05;99860.84;;;6.67;90.39
66430;BME280;53242;51.694;10.006;2023-02-19T08:32:28;99870.13;;;6.53;90.90
66430;BME280;53242;51.694;10.006;2023-02-19T08:34:50;99875.13;;;6.81;90.66
66430;BME280;53242;51.694;10.006;2023-02-19T08:37:12;99876.38;;;6.61;90.52
66430;BME280;53242;51.694;10.006;2023-02-19T08:39:35;99882.97;;;6.73;90.63
66430;BME280;53242;51.694;10.006;2023-02-19T08:41:57;99884.13;;;6.70;91.04
66430;BME280;53242;51.694;10.006;2023-02-19T08:44:19;99895.63;;;6.78;90.51
66430;BME280;53242;51.694;10.006;2023-02-19T08:46:42;99895.25;;;6.64;90.66
66430;BME280;53242;51.694;10.006;2023-02-19T08:49:04;99901.09;;;6.50;90.70
66430;BME280;53242;51.694;10.006;2023-02-19T08:51:27;99895.66;;;6.43;90.69
66430;BME280;53242;51.694;10.006;2023-02-19T08:53:49;99898.03;;;6.63;89.79
66430;BME280;53242;51.694;10.006;2023-02-19T08:56:13;99905.47;;;6.41;90.42
66430;BME280;53242;51.694;10.006;2023-02-19T08:58:37;99904.50;;;6.42;89.16
66430;BME280;53242;51.694;10.006;2023-02-19T09:00:59;99912.09;;;6.19;89.21
66430;BME280;53242;51.694;10.006;2023-02-19T09:03:22;99910.50;;;6.26;89.45
66430;BME280;53242;51.694;10.006;2023-02-19T09:05:44;99917.38;;;6.27;89.02
66430;BME280;53242;51.694;10.006;2023-02-19T09:08:08;99918.97;;;6.20;89.38
66430;BME280;53242;51.694;10.006;2023-02-19T09:10:31;99926.63;;;6.39;89.28
66430;BME280;53242;51.694;10.006;2023-02-19T09:12:54;99933.59;;;6.31;89.38
66430;BME280;53242;51.694;10.006;2023-02-19T09:15:16;99932.13;;;6.02;88.09
66430;BME280;53242;51.694;10.006;2023-02-19T09:17:39;99938.13;;;6.20;88.96
66430;BME280;53242;51.694;10.006;2023-02-19T09:20:02;99939.69;;;6.05;88.70
66430;BME280;53242;51.694;10.006;2023-02-19T09:22:25;99939.91;;;5.93;88.34
66430;BME280;53242;51.694;10.006;2023-02-19T09:24:47;99947.75;;;5.93;87.87
66430;BME280;53242;51.694;10.006;2023-02-19T09:27:14;99964.59;;;5.91;87.73
66430;BME280;53242;51.694;10.006;2023-02-19T09:29:37;99970.16;;;5.88;88.02
66430;BME280;53242;51.694;10.006;2023-02-19T09:32:00;99979.34;;;5.92;87.84
66430;BME280;53242;51.694;10.006;2023-02-19T09:34:23;99978.97;;;6.05;87.44
66430;BME280;53242;51.694;10.006;2023-02-19T09:36:47;99980.34;;;5.73;87.50
66430;BME280;53242;51.694;10.006;2023-02-19T09:39:10;99991.06;;;5.80;87.81
66430;BME280;53242;51.694;10.006;2023-02-19T09:41:42;99993.38;;;6.01;87.22
66430;BME280;53242;51.694;10.006;2023-02-19T09:44:09;100004.75;;;5.91;87.52
66430;BME280;53242;51.694;10.006;2023-02-19T09:46:41;99995.22;;;5.90;86.93
66430;BME280;53242;51.694;10.006;2023-02-19T09:49:06;100004.00;;;5.99;86.94
66430;BME280;53242;51.694;10.006;2023-02-19T09:51:36;100004.91;;;6.34;85.54
66430;BME280;53242;51.694;10.006;2023-02-19T09:54:00;100007.47;;;6.52;85.19
66430;BME280;53242;51.694;10.006;2023-02-19T09:56:25;100022.25;;;6.09;84.14
66430;BME280;53242;51.694;10.006;2023-02-19T09:58:51;100018.22;;;5.97;84.58
66430;BME280;53242;51.694;10.006;2023-02-19T10:01:14;100026.66;;;5.90;84.78
66430;BME280;53242;51.694;10.006;2023-02-19T10:03:39;100028.97;;;5.93;85.06
66430;BME280;53242;51.694;10.006;2023-02-19T10:06:26;100034.09;;;5.95;85.21
66430;BME280;53242;51.694;10.006;2023-02-19T10:08:52;100046.16;;;6.06;84.00
66430;BME280;53242;51.694;10.006;2023-02-19T10:11:16;100046.56;;;6.19;84.16
66430;BME280;53242;51.694;10.006;2023-02-19T10:13:43;100060.13;;;6.33;84.42
66430;BME280;53242;51.694;10.006;2023-02-19T10:16:11;100056.22;;;6.37;84.09
66430;BME280;53242;51.694;10.006;2023-02-19T10:18:39;100068.72;;;6.43;83.66
66430;BME280;53242;51.694;10.006;2023-02-19T10:21:03;100073.06;;;6.61;83.14
66430;BME280;53242;51.694;10.006;2023-02-19T10:23:26;100070.19;;;6.46;83.32
66430;BME280;53242;51.694;10.006;2023-02-19T10:25:52;100076.63;;;6.51;83.04
66430;BME280;53242;51.694;10.006;2023-02-19T10:28:18;100082.91;;;6.58;82.77
66430;BME280;53242;51.694;10.006;2023-02-19T10:30:42;100086.19;;;6.61;82.03
66430;BME280;53242;51.694;10.006;2023-02-19T10:33:13;100088.91;;;6.77;81.81
66430;BME280;53242;51.694;10.006;2023-02-19T10:38:18;100109.66;;;6.62;82.00
66430;BME280;53242;51.694;10.006;2023-02-19T10:40:43;100123.88;;;6.78;80.98
66430;BME280;53242;51.694;10.006;2023-02-19T10:43:19;100131.72;;;6.78;79.91
66430;BME280;53242;51.694;10.006;2023-02-19T10:45:47;100129.09;;;7.04;80.24
66430;BME280;53242;51.694;10.006;2023-02-19T10:48:21;100129.41;;;7.01;79.92
66430;BME280;53242;51.694;10.006;2023-02-19T10:50:50;100135.63;;;6.73;81.02
66430;BME280;53242;51.694;10.006;2023-02-19T10:53:38;100143.66;;;6.98;80.58
66430;BME280;53242;51.694;10.006;2023-02-19T10:56:24;100145.22;;;7.17;79.80
66430;BME280;53242;51.694;10.006;2023-02-19T10:58:46;100149.31;;;6.85;79.58
66430;BME280;53242;51.694;10.006;2023-02-19T11:01:22;100150.53;;;6.73;80.19
66430;BME280;53242;51.694;10.006;2023-02-19T11:03:47;100158.72;;;6.70;79.46
66430;BME280;53242;51.694;10.006;2023-02-19T11:06:09;100163.78;;;6.89;78.96
66430;BME280;53242;51.694;10.006;2023-02-19T11:08:45;100164.19;;;7.03;79.33
66430;BME280;53242;51.694;10.006;2023-02-19T11:11:08;100157.03;;;7.13;79.39
66430;BME280;53242;51.694;10.006;2023-02-19T11:13:31;100160.06;;;7.27;78.66
66430;BME280;53242;51.694;10.006;2023-02-19T11:15:59;100154.31;;;7.31;78.45
66430;BME280;53242;51.694;10.006;2023-02-19T11:18:27;100159.81;;;7.46;78.18
66430;BME280;53242;51.694;10.006;2023-02-19T11:20:52;100158.78;;;7.31;77.89
66430;BME280;53242;51.694;10.006;2023-02-19T11:23:18;100151.00;;;7.55;77.49
66430;BME280;53242;51.694;10.006;2023-02-19T11:25:45;100154.56;;;7.46;77.24
66430;BME280;53242;51.694;10.006;2023-02-19T11:28:29;100146.00;;;7.36;76.34
66430;BME280;53242;51.694;10.006;2023-02-19T11:30:52;100143.19;;;7.29;76.30
66430;BME280;53242;51.694;10.006;2023-02-19T11:35:37;100158.84;;;7.47;76.60
66430;BME280;53242;51.694;10.006;2023-02-19T11:38:00;100158.63;;;7.40;75.52
66430;BME280;53242;51.694;10.006;2023-02-19T11:40:49;100152.47;;;7.50;73.55
66430;BME280;53242;51.694;10.006;2023-02-19T11:43:27;100156.16;;;7.31;75.10
66430;BME280;53242;51.694;10.006;2023-02-19T11:46:11;100153.00;;;7.27;73.36
66430;BME280;53242;51.694;10.006;2023-02-19T11:49:19;100164.81;;;7.57;73.28
66430;BME280;53242;51.694;10.006;2023-02-19T11:55:03;100174.75;;;7.46;73.47
66430;BME280;53242;51.694;10.006;2023-02-19T11:57:33;100170.53;;;7.53;73.58
66430;BME280;53242;51.694;10.006;2023-02-19T12:05:36;100174.16;;;7.60;74.00
66430;BME280;53242;51.694;10.006;2023-02-19T12:11:02;100169.31;;;7.39;75.20
66430;BME280;53242;51.694;10.006;2023-02-19T12:16:37;100164.78;;;8.09;73.56
66430;BME280;53242;51.694;10.006;2023-02-19T12:19:21;100171.16;;;7.98;74.20
66430;BME280;53242;51.694;10.006;2023-02-19T12:27:36;100169.72;;;7.61;73.09
66430;BME280;53242;51.694;10.006;2023-02-19T12:33:23;100164.66;;;7.67;72.46
66430;BME280;53242;51.694;10.006;2023-02-19T12:38:42;100166.44;;;7.58;72.62
66430;BME280;53242;51.694;10.006;2023-02-19T12:41:24;100173.56;;;7.74;71.02
66430;BME280;53242;51.694;10.006;2023-02-19T12:44:18;100176.38;;;7.89;71.26
66430;BME280;53242;51.694;10.006;2023-02-19T12:46:52;100177.38;;;7.88;72.20
66430;BME280;53242;51.694;10.006;2023-02-19T12:49:41;100186.25;;;7.96;71.76
66430;BME280;53242;51.694;10.006;2023-02-19T12:52:09;100183.03;;;7.67;70.22
66430;BME280;53242;51.694;10.006;2023-02-19T12:54:40;100195.81;;;7.54;71.72
66430;BME280;53242;51.694;10.006;2023-02-19T12:57:08;100194.16;;;7.53;71.89
66430;BME280;53242;51.694;10.006;2023-02-19T12:59:37;100201.69;;;7.48;71.72
66430;BME280;53242;51.694;10.006;2023-02-19T13:02:19;100202.56;;;7.65;70.84
66430;BME280;53242;51.694;10.006;2023-02-19T13:05:01;100202.75;;;7.63;70.65
66430;BME280;53242;51.694;10.006;2023-02-19T13:07:31;100201.59;;;7.66;71.13
66430;BME280;53242;51.694;10.006;2023-02-19T13:09:59;100204.69;;;7.61;70.23
66430;BME280;53242;51.694;10.006;2023-02-19T13:12:28;100212.03;;;7.84;69.44
66430;BME280;53242;51.694;10.006;2023-02-19T13:14:56;100214.63;;;7.76;69.30
66430;BME280;53242;51.694;10.006;2023-02-19T13:20:12;100220.59;;;7.94;68.98
66430;BME280;53242;51.694;10.006;2023-02-19T13:22:43;100222.47;;;8.27;68.48
66430;BME280;53242;51.694;10.006;2023-02-19T13:25:41;100230.19;;;8.20;67.78
66430;BME280;53242;51.694;10.006;2023-02-19T13:30:59;100235.97;;;8.23;68.71
66430;BME280;53242;51.694;10.006;2023-02-19T13:33:32;100237.22;;;7.95;68.57
66430;BME280;53242;51.694;10.006;2023-02-19T13:36:07;100241.38;;;8.22;68.25
66430;BME280;53242;51.694;10.006;2023-02-19T13:38:35;100233.16;;;8.17;69.55
66430;BME280;53242;51.694;10.006;2023-02-19T13:40:59;100238.19;;;8.02;69.86
66430;BME280;53242;51.694;10.006;2023-02-19T13:43:34;100235.56;;;8.02;69.84
66430;BME280;53242;51.694;10.006;2023-02-19T13:46:05;100241.84;;;8.09;69.70